Time;durP1;ratioP1;P1;durP2;ratioP2;P2;SDS_P1;SDS_P2;PMS_P1;PMS_P2;Temp;Humidity;BMP_temperature;BMP_pressure;BME280_temperature;BME280_humidity;BME280_pressure;Samples;Min_cycle;Max_cycle;Signal;HPM_P1;HPM_P2
2023/01/01 00:02:02;;;;;;;211.02;152.35;;;;;;;;;;4928131;28;20050;-85
2023/01/01 00:04:31;;;;;;;54.42;33.20;;;;;;;;;;4965920;28;20645;-87
2023/01/01 00:07:00;;;;;;;16.55;9.60;;;;;;;;;;4956035;28;20489;-84
2023/01/01 00:12:17;;;;;;;46.55;27.17;;;;;;;;;;4968273;28;20054;-86
2023/01/01 00:14:45;;;;;;;14.80;11.95;;;;;;;;;;4953945;28;20046;-85
2023/01/01 00:17:12;;;;;;;21.17;17.13;;;;;;;;;;4969692;28;20062;-86
2023/01/01 00:19:40;;;;;;;45.88;24.90;;;;;;;;;;4969080;28;20050;-86
2023/01/01 00:22:10;;;;;;;35.58;24.00;;;;;;;;;;4946850;28;20058;-85
2023/01/01 00:25:04;;;;;;;32.83;24.60;;;;;;;;;;4960153;28;20842;-86
2023/01/01 00:27:33;;;;;;;28.70;21.80;;;;;;;;;;4952217;28;20065;-85
2023/01/01 00:30:03;;;;;;;36.28;23.05;;;;;;;;;;4944464;28;20383;-85
2023/01/01 00:32:31;;;;;;;30.50;21.35;;;;;;;;;;4943882;28;20041;-85
2023/01/01 00:34:59;;;;;;;28.08;20.80;;;;;;;;;;4960178;28;20673;-86
2023/01/01 00:37:28;;;;;;;26.63;17.13;;;;;;;;;;4951812;28;20051;-84
2023/01/01 00:39:56;;;;;;;24.40;15.18;;;;;;;;;;4948558;29;20055;-85
2023/01/01 00:42:24;;;;;;;31.00;20.38;;;;;;;;;;4949628;29;20059;-83
2023/01/01 00:44:51;;;;;;;34.15;20.88;;;;;;;;;;4951513;28;20047;-84
2023/01/01 00:47:20;;;;;;;36.33;23.35;;;;;;;;;;4941294;28;20047;-84
2023/01/01 00:49:48;;;;;;;39.08;22.98;;;;;;;;;;4921931;29;20082;-83
2023/01/01 00:52:16;;;;;;;37.28;23.25;;;;;;;;;;4921622;28;20517;-84
2023/01/01 00:54:44;;;;;;;32.90;23.77;;;;;;;;;;4933501;29;20062;-83
2023/01/01 00:57:12;;;;;;;33.33;24.90;;;;;;;;;;4898993;29;20051;-84
2023/01/01 00:59:41;;;;;;;27.85;18.23;;;;;;;;;;4942313;28;20407;-83
2023/01/01 01:02:09;;;;;;;27.13;22.85;;;;;;;;;;4951494;28;20055;-84
2023/01/01 01:04:46;;;;;;;31.33;21.55;;;;;;;;;;4925554;28;20051;-84
2023/01/01 01:07:14;;;;;;;27.38;19.55;;;;;;;;;;4937922;28;20067;-84
2023/01/01 01:09:41;;;;;;;24.17;16.27;;;;;;;;;;4936605;28;20055;-84
2023/01/01 01:12:11;;;;;;;24.48;16.02;;;;;;;;;;4937767;29;20054;-84
2023/01/01 01:14:46;;;;;;;27.73;12.77;;;;;;;;;;4937032;28;20044;-83
2023/01/01 01:17:14;;;;;;;15.98;12.55;;;;;;;;;;4948294;29;20043;-83
2023/01/01 01:19:45;;;;;;;20.95;15.65;;;;;;;;;;4948555;28;20047;-84
2023/01/01 01:22:13;;;;;;;22.95;14.50;;;;;;;;;;4917479;29;20066;-84
2023/01/01 01:24:41;;;;;;;15.80;11.13;;;;;;;;;;4935832;28;20040;-84
2023/01/01 01:27:09;;;;;;;21.63;14.00;;;;;;;;;;4936104;28;20047;-85
2023/01/01 01:29:37;;;;;;;14.60;11.63;;;;;;;;;;4936291;29;20054;-85
2023/01/01 01:32:05;;;;;;;13.15;9.82;;;;;;;;;;4938451;29;20411;-83
2023/01/01 01:34:36;;;;;;;22.80;15.63;;;;;;;;;;4932453;29;20059;-84
2023/01/01 01:37:04;;;;;;;27.38;19.60;;;;;;;;;;4944933;28;20291;-85
2023/01/01 01:39:32;;;;;;;15.98;13.13;;;;;;;;;;4950831;28;20246;-86
2023/01/01 01:42:04;;;;;;;15.52;11.55;;;;;;;;;;4953369;28;20058;-84
2023/01/01 01:44:50;;;;;;;20.23;13.80;;;;;;;;;;4936400;28;20422;-85
2023/01/01 01:47:27;;;;;;;14.27;10.80;;;;;;;;;;4951808;28;20073;-86
2023/01/01 01:50:01;;;;;;;19.20;10.38;;;;;;;;;;4936303;28;20058;-85
2023/01/01 01:52:30;;;;;;;13.52;8.55;;;;;;;;;;4935146;28;20043;-85
2023/01/01 01:55:00;;;;;;;10.93;9.82;;;;;;;;;;4969982;28;20422;-84
2023/01/01 01:57:29;;;;;;;9.95;8.10;;;;;;;;;;4968493;28;20054;-86
2023/01/01 01:59:59;;;;;;;12.73;9.38;;;;;;;;;;4920365;28;20047;-86
2023/01/01 02:02:33;;;;;;;12.23;8.57;;;;;;;;;;4951886;28;20316;-87
2023/01/01 02:05:03;;;;;;;9.25;6.50;;;;;;;;;;4969133;28;20050;-81
2023/01/01 02:07:33;;;;;;;10.90;8.43;;;;;;;;;;4968317;28;20066;-86
2023/01/01 02:10:02;;;;;;;12.23;9.52;;;;;;;;;;4935927;28;20058;-86
2023/01/01 02:12:30;;;;;;;10.80;7.60;;;;;;;;;;4968430;28;20051;-85
2023/01/01 02:14:58;;;;;;;11.80;7.97;;;;;;;;;;4947190;28;20081;-85
2023/01/01 02:17:45;;;;;;;17.70;11.30;;;;;;;;;;4951594;28;20042;-85
2023/01/01 02:20:26;;;;;;;8.55;6.10;;;;;;;;;;4956585;28;20512;-85
2023/01/01 02:22:54;;;;;;;11.95;7.95;;;;;;;;;;4974396;28;20066;-85
2023/01/01 02:25:56;;;;;;;8.73;7.15;;;;;;;;;;4967893;28;20039;-85
2023/01/01 02:28:47;;;;;;;25.27;11.50;;;;;;;;;;4948297;28;20470;-85
2023/01/01 02:31:18;;;;;;;13.07;7.57;;;;;;;;;;4941965;28;20065;-85
2023/01/01 02:33:52;;;;;;;8.70;7.82;;;;;;;;;;4953074;28;20043;-85
2023/01/01 02:36:21;;;;;;;14.13;7.95;;;;;;;;;;4935712;28;20054;-85
2023/01/01 02:38:51;;;;;;;10.10;8.95;;;;;;;;;;4968007;28;20079;-85
2023/01/01 02:41:21;;;;;;;13.80;6.75;;;;;;;;;;4938178;28;20047;-85
2023/01/01 02:43:49;;;;;;;12.15;8.10;;;;;;;;;;4955162;28;20051;-85
2023/01/01 02:46:17;;;;;;;11.25;8.73;;;;;;;;;;4940118;28;20055;-85
2023/01/01 02:48:46;;;;;;;12.45;7.57;;;;;;;;;;4972308;28;20034;-85
2023/01/01 02:51:14;;;;;;;12.43;9.70;;;;;;;;;;4955176;28;20059;-85
2023/01/01 02:53:47;;;;;;;10.73;7.45;;;;;;;;;;4938636;28;20054;-85
2023/01/01 02:56:19;;;;;;;10.75;6.82;;;;;;;;;;4954974;28;20054;-85
2023/01/01 03:01:43;;;;;;;11.93;8.27;;;;;;;;;;4971879;28;20050;-85
2023/01/01 03:04:28;;;;;;;11.57;8.27;;;;;;;;;;4954958;28;20058;-85
2023/01/01 03:07:11;;;;;;;20.05;9.35;;;;;;;;;;4976656;28;20053;-85
2023/01/01 03:09:50;;;;;;;11.48;8.02;;;;;;;;;;4971950;28;20034;-85
2023/01/01 03:12:21;;;;;;;13.63;8.07;;;;;;;;;;4955398;28;20039;-85
2023/01/01 03:14:58;;;;;;;12.18;7.45;;;;;;;;;;4940413;28;20058;-85
2023/01/01 03:17:35;;;;;;;11.75;8.63;;;;;;;;;;4954925;28;20047;-84
2023/01/01 03:20:07;;;;;;;11.20;9.02;;;;;;;;;;4977475;28;20042;-85
2023/01/01 03:22:38;;;;;;;16.45;8.18;;;;;;;;;;4954613;28;20073;-84
2023/01/01 03:25:05;;;;;;;11.20;8.85;;;;;;;;;;4971772;28;20050;-85
2023/01/01 03:27:36;;;;;;;9.70;7.63;;;;;;;;;;4972589;28;20307;-84
2023/01/01 03:30:07;;;;;;;10.32;7.07;;;;;;;;;;4951292;29;20055;-84
2023/01/01 03:33:04;;;;;;;11.85;9.07;;;;;;;;;;4945719;28;20051;-85
2023/01/01 03:35:42;;;;;;;9.25;7.18;;;;;;;;;;4954794;28;20049;-85
2023/01/01 03:38:13;;;;;;;12.68;8.43;;;;;;;;;;4954213;28;20039;-84
2023/01/01 03:40:43;;;;;;;14.70;8.20;;;;;;;;;;4970775;28;20043;-85
2023/01/01 03:43:13;;;;;;;10.20;8.25;;;;;;;;;;4970751;28;20055;-85
2023/01/01 03:45:42;;;;;;;14.70;9.15;;;;;;;;;;4955093;28;20411;-85
2023/01/01 03:48:11;;;;;;;10.82;7.20;;;;;;;;;;4955451;28;20426;-84
2023/01/01 03:50:58;;;;;;;12.18;9.43;;;;;;;;;;4971757;28;20066;-84
2023/01/01 03:53:52;;;;;;;12.63;8.85;;;;;;;;;;4952689;28;20054;-85
2023/01/01 03:56:39;;;;;;;13.85;9.80;;;;;;;;;;4951731;28;20047;-85
2023/01/01 03:59:20;;;;;;;12.35;8.07;;;;;;;;;;4954513;28;20299;-84
2023/01/01 04:01:51;;;;;;;12.15;7.93;;;;;;;;;;4968409;28;20047;-84
2023/01/01 04:04:19;;;;;;;11.57;9.20;;;;;;;;;;4971389;28;20422;-85
2023/01/01 04:06:47;;;;;;;12.15;9.30;;;;;;;;;;4938265;28;20074;-84
2023/01/01 04:09:17;;;;;;;12.05;8.07;;;;;;;;;;4952846;28;20047;-85
2023/01/01 04:12:03;;;;;;;12.75;9.10;;;;;;;;;;4971438;28;20039;-84
2023/01/01 04:14:30;;;;;;;14.80;9.38;;;;;;;;;;4938239;28;20054;-84
2023/01/01 04:16:59;;;;;;;14.77;8.98;;;;;;;;;;4953838;28;20054;-85
2023/01/01 04:19:28;;;;;;;13.07;9.93;;;;;;;;;;4954065;28;20073;-84
2023/01/01 04:21:56;;;;;;;15.00;9.38;;;;;;;;;;4970423;28;20063;-84
2023/01/01 04:24:24;;;;;;;15.98;10.40;;;;;;;;;;4969008;28;20047;-84
2023/01/01 04:26:52;;;;;;;17.33;9.40;;;;;;;;;;4938339;28;20051;-84
2023/01/01 04:29:21;;;;;;;14.57;10.88;;;;;;;;;;4971666;28;20039;-85
2023/01/01 04:31:50;;;;;;;18.98;11.18;;;;;;;;;;4971060;28;20065;-84
2023/01/01 04:34:18;;;;;;;12.98;8.82;;;;;;;;;;4970896;28;20085;-84
2023/01/01 04:36:46;;;;;;;18.23;12.10;;;;;;;;;;4969765;28;20054;-85
2023/01/01 04:39:14;;;;;;;14.75;11.05;;;;;;;;;;4952252;28;20065;-84
2023/01/01 04:41:42;;;;;;;10.35;8.23;;;;;;;;;;4970656;28;20406;-85
2023/01/01 04:44:09;;;;;;;15.52;10.75;;;;;;;;;;4953075;28;20050;-84
2023/01/01 04:46:37;;;;;;;15.52;11.63;;;;;;;;;;4954895;28;20385;-85
2023/01/01 04:49:05;;;;;;;15.60;10.90;;;;;;;;;;4969750;28;20043;-85
2023/01/01 04:51:33;;;;;;;13.43;10.82;;;;;;;;;;4948953;28;20415;-84
2023/01/01 04:54:02;;;;;;;15.95;12.27;;;;;;;;;;4931665;29;20054;-85
2023/01/01 04:56:30;;;;;;;22.40;14.80;;;;;;;;;;4959576;28;20735;-84
2023/01/01 04:59:00;;;;;;;18.33;10.45;;;;;;;;;;4953731;28;20047;-85
2023/01/01 05:01:29;;;;;;;11.52;9.45;;;;;;;;;;4971000;28;20059;-85
2023/01/01 05:03:58;;;;;;;11.57;8.18;;;;;;;;;;4920327;28;20047;-85
2023/01/01 05:06:26;;;;;;;16.58;8.80;;;;;;;;;;4937802;28;20392;-84
2023/01/01 05:08:56;;;;;;;14.00;10.95;;;;;;;;;;4968392;28;20053;-85
2023/01/01 05:11:25;;;;;;;17.63;12.18;;;;;;;;;;4953733;28;20053;-85
2023/01/01 05:13:54;;;;;;;16.17;11.05;;;;;;;;;;4970269;28;20082;-85
2023/01/01 05:16:24;;;;;;;16.10;10.63;;;;;;;;;;4970709;28;20054;-84
2023/01/01 05:18:52;;;;;;;19.10;10.00;;;;;;;;;;4937619;28;20050;-84
2023/01/01 05:21:24;;;;;;;20.55;12.50;;;;;;;;;;4942848;28;20042;-84
2023/01/01 05:23:57;;;;;;;16.00;10.30;;;;;;;;;;4971108;28;20046;-85
2023/01/01 05:26:27;;;;;;;17.05;12.75;;;;;;;;;;4972774;28;20054;-84
2023/01/01 05:28:56;;;;;;;14.93;10.95;;;;;;;;;;4983535;28;20050;-84
2023/01/01 05:31:26;;;;;;;18.83;10.48;;;;;;;;;;4952148;28;20062;-84
2023/01/01 05:33:54;;;;;;;14.73;10.32;;;;;;;;;;4970089;28;20058;-84
2023/01/01 05:36:29;;;;;;;16.05;10.63;;;;;;;;;;4952539;28;20050;-84
2023/01/01 05:38:58;;;;;;;13.35;8.93;;;;;;;;;;4951435;28;20055;-84
2023/01/01 05:41:26;;;;;;;13.73;10.73;;;;;;;;;;4952603;28;20042;-84
2023/01/01 05:43:54;;;;;;;14.50;11.30;;;;;;;;;;4970110;28;20051;-85
2023/01/01 05:46:23;;;;;;;15.07;9.40;;;;;;;;;;4953091;28;20051;-84
2023/01/01 05:48:52;;;;;;;11.05;8.77;;;;;;;;;;4968478;28;20402;-84
2023/01/01 05:51:22;;;;;;;9.43;7.50;;;;;;;;;;4935568;28;20055;-84
2023/01/01 05:53:50;;;;;;;10.50;7.07;;;;;;;;;;4951483;28;20137;-84
2023/01/01 05:56:19;;;;;;;10.32;8.10;;;;;;;;;;4968969;28;20054;-84
2023/01/01 05:58:48;;;;;;;11.45;7.38;;;;;;;;;;4954732;28;20192;-84
2023/01/01 06:01:27;;;;;;;21.35;8.60;;;;;;;;;;4951698;28;20410;-84
2023/01/01 06:03:56;;;;;;;15.05;8.30;;;;;;;;;;4917323;29;20055;-85
2023/01/01 06:06:27;;;;;;;15.38;7.40;;;;;;;;;;4967216;28;20077;-84
2023/01/01 06:09:00;;;;;;;8.48;7.30;;;;;;;;;;4968028;28;20046;-85
2023/01/01 06:11:29;;;;;;;12.77;8.50;;;;;;;;;;4936266;28;20047;-85
2023/01/01 06:13:58;;;;;;;12.73;8.50;;;;;;;;;;4970546;28;20403;-84
2023/01/01 06:16:26;;;;;;;14.98;8.65;;;;;;;;;;4953201;28;20657;-85
2023/01/01 06:18:56;;;;;;;11.23;7.97;;;;;;;;;;4969626;28;20047;-84
2023/01/01 06:21:27;;;;;;;11.57;8.70;;;;;;;;;;4949461;28;20054;-84
2023/01/01 06:23:57;;;;;;;12.35;8.55;;;;;;;;;;4968277;28;20050;-84
2023/01/01 06:26:32;;;;;;;11.57;8.35;;;;;;;;;;4936756;28;20454;-84
2023/01/01 06:29:01;;;;;;;11.98;8.82;;;;;;;;;;4914790;29;20043;-84
2023/01/01 06:31:36;;;;;;;14.27;9.60;;;;;;;;;;4932433;29;20035;-84
2023/01/01 06:34:08;;;;;;;11.10;7.28;;;;;;;;;;4949285;29;20047;-85
2023/01/01 06:36:36;;;;;;;16.08;8.13;;;;;;;;;;4949886;28;20047;-85
2023/01/01 06:39:04;;;;;;;14.25;7.45;;;;;;;;;;4960748;28;20426;-85
2023/01/01 06:41:32;;;;;;;9.48;7.50;;;;;;;;;;4952004;28;20058;-85
2023/01/01 06:44:00;;;;;;;10.35;6.95;;;;;;;;;;4920302;28;20081;-84
2023/01/01 06:46:30;;;;;;;8.10;7.22;;;;;;;;;;4936603;28;20077;-85
2023/01/01 06:49:00;;;;;;;;;;;;;;;;;;4967404;28;20042;-85
2023/01/01 06:51:30;;;;;;;8.75;5.93;;;;;;;;;;4952773;28;19926;-85
2023/01/01 06:54:01;;;;;;;15.20;8.10;;;;;;;;;;4968048;28;20058;-85
2023/01/01 06:56:30;;;;;;;9.52;6.57;;;;;;;;;;4966652;28;20043;-85
2023/01/01 06:58:58;;;;;;;10.07;6.78;;;;;;;;;;4936049;28;20055;-84
2023/01/01 07:01:28;;;;;;;11.25;7.38;;;;;;;;;;4968610;28;20043;-85
2023/01/01 07:03:57;;;;;;;8.23;6.45;;;;;;;;;;4951446;28;20047;-85
2023/01/01 07:06:26;;;;;;;6.88;5.35;;;;;;;;;;4969726;28;20050;-85
2023/01/01 07:08:55;;;;;;;7.30;5.85;;;;;;;;;;4969672;28;20055;-85
2023/01/01 07:11:23;;;;;;;6.47;5.53;;;;;;;;;;4951260;28;20050;-85
2023/01/01 07:13:51;;;;;;;7.75;5.20;;;;;;;;;;4951568;28;20051;-85
2023/01/01 07:16:20;;;;;;;9.48;6.07;;;;;;;;;;4968697;28;20042;-85
2023/01/01 07:18:49;;;;;;;7.32;5.10;;;;;;;;;;4951839;28;20051;-85
2023/01/01 07:21:34;;;;;;;11.48;4.35;;;;;;;;;;4947647;28;20090;-86
2023/01/01 07:24:03;;;;;;;6.22;4.13;;;;;;;;;;4963636;28;20385;-85
2023/01/01 07:26:32;;;;;;;10.95;6.95;;;;;;;;;;4969138;28;20039;-85
2023/01/01 07:29:00;;;;;;;6.80;4.03;;;;;;;;;;4965430;28;20065;-85
2023/01/01 07:31:38;;;;;;;4.90;4.13;;;;;;;;;;4968980;28;20042;-85
2023/01/01 07:34:07;;;;;;;5.57;5.05;;;;;;;;;;4923411;28;20043;-85
2023/01/01 07:36:40;;;;;;;9.77;5.90;;;;;;;;;;4972168;28;20047;-85
2023/01/01 07:39:08;;;;;;;5.70;4.85;;;;;;;;;;4969149;28;20055;-85
2023/01/01 07:41:36;;;;;;;5.53;4.43;;;;;;;;;;4938231;28;20061;-85
2023/01/01 07:44:04;;;;;;;6.60;5.35;;;;;;;;;;4954442;28;20051;-85
2023/01/01 07:46:35;;;;;;;7.90;4.25;;;;;;;;;;4970719;28;20058;-85
2023/01/01 07:49:05;;;;;;;7.32;3.78;;;;;;;;;;4954193;28;20069;-85
2023/01/01 07:51:33;;;;;;;6.65;3.90;;;;;;;;;;4971714;28;20054;-85
2023/01/01 07:54:01;;;;;;;7.75;4.13;;;;;;;;;;4970769;28;20260;-85
2023/01/01 07:56:34;;;;;;;6.43;4.38;;;;;;;;;;4938360;28;20050;-85
2023/01/01 07:59:05;;;;;;;5.18;4.18;;;;;;;;;;4955471;28;20046;-85
2023/01/01 08:01:37;;;;;;;6.78;4.63;;;;;;;;;;4937896;28;20057;-85
2023/01/01 08:04:06;;;;;;;5.30;4.60;;;;;;;;;;4953422;28;20418;-86
2023/01/01 08:06:34;;;;;;;6.38;4.53;;;;;;;;;;4955278;28;20059;-85
2023/01/01 08:09:02;;;;;;;9.75;4.55;;;;;;;;;;4952467;28;20039;-85
2023/01/01 08:11:30;;;;;;;4.70;3.92;;;;;;;;;;4953479;28;20054;-85
2023/01/01 08:13:58;;;;;;;8.25;3.67;;;;;;;;;;4954121;28;20059;-85
2023/01/01 08:16:25;;;;;;;5.72;4.47;;;;;;;;;;4971467;28;20501;-85
2023/01/01 08:18:53;;;;;;;5.38;3.92;;;;;;;;;;4971429;28;20774;-85
2023/01/01 08:21:24;;;;;;;5.45;4.00;;;;;;;;;;4976811;28;20065;-86
2023/01/01 08:23:53;;;;;;;6.53;3.38;;;;;;;;;;4952276;28;20089;-86
2023/01/01 08:26:31;;;;;;;8.25;4.88;;;;;;;;;;4968370;28;20051;-85
2023/01/01 08:28:59;;;;;;;5.97;4.80;;;;;;;;;;4971007;28;20035;-85
2023/01/01 08:31:27;;;;;;;4.40;3.28;;;;;;;;;;4953557;28;20458;-85
2023/01/01 08:33:55;;;;;;;4.15;3.10;;;;;;;;;;4970633;28;20057;-86
2023/01/01 08:36:25;;;;;;;9.07;3.42;;;;;;;;;;4953479;28;20055;-85
2023/01/01 08:38:54;;;;;;;3.50;3.15;;;;;;;;;;4943588;28;20401;-85
2023/01/01 08:41:22;;;;;;;6.70;5.18;;;;;;;;;;4933709;29;20455;-85
2023/01/01 08:43:50;;;;;;;5.90;3.95;;;;;;;;;;4934392;29;20062;-85
2023/01/01 08:46:20;;;;;;;6.00;5.32;;;;;;;;;;4931580;28;20073;-85
2023/01/01 08:48:48;;;;;;;6.43;3.75;;;;;;;;;;4953306;28;20046;-85
2023/01/01 08:51:16;;;;;;;5.07;3.60;;;;;;;;;;4970159;28;20063;-85
2023/01/01 08:53:44;;;;;;;3.88;3.33;;;;;;;;;;4970139;28;20050;-85
2023/01/01 08:56:19;;;;;;;4.57;3.20;;;;;;;;;;4953931;28;20270;-85
2023/01/01 08:58:48;;;;;;;5.10;3.88;;;;;;;;;;4970970;28;20062;-85
2023/01/01 09:01:31;;;;;;;8.13;5.68;;;;;;;;;;4970137;28;20047;-86
2023/01/01 09:03:59;;;;;;;3.88;3.58;;;;;;;;;;4969668;28;20438;-85
2023/01/01 09:06:27;;;;;;;3.80;3.38;;;;;;;;;;4971024;28;20143;-85
2023/01/01 09:08:55;;;;;;;5.85;5.25;;;;;;;;;;4953121;28;20057;-85
2023/01/01 09:11:28;;;;;;;5.60;3.35;;;;;;;;;;4936963;28;20058;-85
2023/01/01 09:13:56;;;;;;;4.65;4.20;;;;;;;;;;4951520;29;20046;-85
2023/01/01 09:16:24;;;;;;;5.18;3.17;;;;;;;;;;4950823;28;20145;-85
2023/01/01 09:18:52;;;;;;;4.40;3.15;;;;;;;;;;4951115;29;20059;-85
2023/01/01 09:21:20;;;;;;;36.20;7.25;;;;;;;;;;4950716;28;20047;-85
2023/01/01 09:23:48;;;;;;;5.75;4.07;;;;;;;;;;4968920;28;20049;-85
2023/01/01 09:26:16;;;;;;;5.65;3.55;;;;;;;;;;4969873;28;20055;-85
2023/01/01 09:28:44;;;;;;;4.32;3.50;;;;;;;;;;4950184;28;20050;-85
2023/01/01 09:31:12;;;;;;;6.90;6.25;;;;;;;;;;4950995;28;20046;-85
2023/01/01 09:33:40;;;;;;;4.85;3.75;;;;;;;;;;4949173;28;20413;-86
2023/01/01 09:36:25;;;;;;;6.10;5.57;;;;;;;;;;4951009;28;20046;-85
2023/01/01 09:38:55;;;;;;;7.10;4.13;;;;;;;;;;4942652;28;20055;-86
2023/01/01 09:41:23;;;;;;;3.97;2.88;;;;;;;;;;4969163;28;20081;-85
2023/01/01 09:44:02;;;;;;;5.63;4.85;;;;;;;;;;4952703;28;20047;-86
2023/01/01 09:46:31;;;;;;;3.55;3.00;;;;;;;;;;4953364;28;20043;-87
2023/01/01 09:49:03;;;;;;;4.65;3.28;;;;;;;;;;4951508;28;20047;-87
2023/01/01 09:51:32;;;;;;;3.80;3.20;;;;;;;;;;4951061;28;20054;-87
2023/01/01 09:54:12;;;;;;;3.20;2.90;;;;;;;;;;4968967;28;20411;-87
2023/01/01 09:56:41;;;;;;;2.78;2.50;;;;;;;;;;4959436;28;20035;-89
2023/01/01 09:59:10;;;;;;;2.53;2.33;;;;;;;;;;4969511;28;20455;-87
2023/01/01 10:01:45;;;;;;;5.45;3.03;;;;;;;;;;4952118;28;20055;-87
2023/01/01 10:04:41;;;;;;;4.05;2.78;;;;;;;;;;4952110;28;20050;-88
2023/01/01 10:07:15;;;;;;;4.60;3.17;;;;;;;;;;4951234;28;20085;-87
2023/01/01 10:09:52;;;;;;;5.00;3.40;;;;;;;;;;4936577;28;20054;-90
2023/01/01 10:12:23;;;;;;;4.82;2.78;;;;;;;;;;4920619;28;20050;-87
2023/01/01 10:15:23;;;;;;;3.95;3.05;;;;;;;;;;4970849;28;20066;-88
2023/01/01 10:17:54;;;;;;;5.07;3.47;;;;;;;;;;4910471;28;20046;-87
2023/01/01 10:20:49;;;;;;;3.65;2.72;;;;;;;;;;4975779;28;20039;-86
2023/01/01 10:23:26;;;;;;;3.63;3.28;;;;;;;;;;4958442;28;20054;-86
2023/01/01 10:25:55;;;;;;;4.97;2.55;;;;;;;;;;4971531;28;20058;-87
2023/01/01 10:28:29;;;;;;;7.78;5.18;;;;;;;;;;4959130;28;20038;-87
2023/01/01 10:31:20;;;;;;;4.60;3.05;;;;;;;;;;4977412;28;20046;-87
2023/01/01 10:33:49;;;;;;;2.80;2.60;;;;;;;;;;4950780;28;20058;-88
2023/01/01 10:36:25;;;;;;;5.30;2.58;;;;;;;;;;4936347;28;20050;-88
2023/01/01 10:38:56;;;;;;;13.20;4.28;;;;;;;;;;4957303;28;20046;-87
2023/01/01 10:41:24;;;;;;;3.97;3.20;;;;;;;;;;4951795;28;20498;-88
2023/01/01 10:43:52;;;;;;;3.47;3.13;;;;;;;;;;4935894;28;20058;-87
2023/01/01 10:46:22;;;;;;;3.95;3.10;;;;;;;;;;4952527;28;20268;-86
2023/01/01 10:49:11;;;;;;;7.22;4.05;;;;;;;;;;4950623;28;20051;-86
2023/01/01 10:51:45;;;;;;;8.50;3.42;;;;;;;;;;4951781;28;20049;-87
2023/01/01 10:54:28;;;;;;;5.22;3.75;;;;;;;;;;4950653;28;20062;-88
2023/01/01 10:56:58;;;;;;;6.30;4.95;;;;;;;;;;4936180;28;20073;-88
2023/01/01 10:59:37;;;;;;;4.70;4.25;;;;;;;;;;4971163;28;20065;-88
2023/01/01 11:02:17;;;;;;;4.15;3.70;;;;;;;;;;4980958;28;20123;-84
2023/01/01 11:04:50;;;;;;;8.82;4.35;;;;;;;;;;4954936;28;20586;-88
2023/01/01 11:07:22;;;;;;;6.78;3.30;;;;;;;;;;4962096;28;20058;-88
2023/01/01 11:09:51;;;;;;;4.63;3.75;;;;;;;;;;4971633;28;20062;-83
2023/01/01 11:12:33;;;;;;;5.55;4.47;;;;;;;;;;4955478;28;20046;-89
2023/01/01 11:15:38;;;;;;;9.90;8.60;;;;;;;;;;4955286;28;20050;-90
2023/01/01 11:18:19;;;;;;;6.30;3.97;;;;;;;;;;4970837;28;20426;-88
2023/01/01 11:20:51;;;;;;;7.05;5.15;;;;;;;;;;4983394;28;20518;-91
2023/01/01 11:23:28;;;;;;;5.40;4.07;;;;;;;;;;4987524;28;20665;-88
2023/01/01 11:25:57;;;;;;;6.60;5.97;;;;;;;;;;4955471;28;20478;-90
2023/01/01 11:28:30;;;;;;;5.85;4.70;;;;;;;;;;4969744;28;20051;-90
2023/01/01 11:31:01;;;;;;;6.60;5.20;;;;;;;;;;4952733;29;20276;-90
2023/01/01 11:33:30;;;;;;;6.07;4.35;;;;;;;;;;4946303;28;20053;-88
2023/01/01 11:35:59;;;;;;;6.78;5.82;;;;;;;;;;4981296;28;20051;-90
2023/01/01 11:38:28;;;;;;;6.78;4.75;;;;;;;;;;4953805;28;20043;-89
2023/01/01 11:41:05;;;;;;;6.45;4.07;;;;;;;;;;4954294;28;20062;-87
2023/01/01 11:43:38;;;;;;;7.00;5.18;;;;;;;;;;4954068;28;20045;-87
2023/01/01 11:46:08;;;;;;;4.90;4.40;;;;;;;;;;4949807;28;20051;-91
2023/01/01 11:48:40;;;;;;;4.32;3.90;;;;;;;;;;4969752;28;20054;-88
2023/01/01 11:51:10;;;;;;;;;;;;;;;;;;4972371;28;20062;-89
2023/01/01 11:53:42;;;;;;;5.70;4.53;;;;;;;;;;4971001;28;19948;-90
2023/01/01 11:56:18;;;;;;;12.15;7.10;;;;;;;;;;4971477;28;20043;-89
2023/01/01 11:58:48;;;;;;;6.95;5.90;;;;;;;;;;4954370;28;20050;-90
2023/01/01 12:01:19;;;;;;;6.57;5.60;;;;;;;;;;4923823;28;20043;-91
2023/01/01 12:03:56;;;;;;;6.22;5.63;;;;;;;;;;4920320;29;20463;-89
2023/01/01 12:06:28;;;;;;;10.10;6.78;;;;;;;;;;4951155;29;20421;-89
2023/01/01 12:09:05;;;;;;;11.90;8.25;;;;;;;;;;4934157;29;20285;-88
2023/01/01 12:11:36;;;;;;;7.70;5.57;;;;;;;;;;4950972;28;20042;-86
2023/01/01 12:14:19;;;;;;;9.05;5.57;;;;;;;;;;4959092;28;20065;-87
2023/01/01 12:17:12;;;;;;;7.38;5.15;;;;;;;;;;4968963;28;20631;-87
2023/01/01 12:20:00;;;;;;;7.90;4.63;;;;;;;;;;4946137;28;20043;-89
2023/01/01 12:22:28;;;;;;;9.30;6.03;;;;;;;;;;4937820;28;20054;-84
2023/01/01 12:24:56;;;;;;;7.55;4.70;;;;;;;;;;4967776;28;20046;-82
2023/01/01 12:27:30;;;;;;;5.68;4.93;;;;;;;;;;4967509;28;20047;-82
2023/01/01 12:29:59;;;;;;;6.35;5.32;;;;;;;;;;4969420;28;20054;-85
2023/01/01 12:32:47;;;;;;;6.85;4.68;;;;;;;;;;4952465;28;20047;-87
2023/01/01 12:35:35;;;;;;;8.25;4.57;;;;;;;;;;4936094;28;20375;-85
2023/01/01 12:38:11;;;;;;;5.00;3.90;;;;;;;;;;4970224;28;20042;-84
2023/01/01 12:40:43;;;;;;;6.18;4.90;;;;;;;;;;4945782;28;20043;-83
2023/01/01 12:43:12;;;;;;;11.73;3.78;;;;;;;;;;4951032;28;20061;-82
2023/01/01 12:45:58;;;;;;;3.88;3.53;;;;;;;;;;4964747;28;20046;-85
2023/01/01 12:48:33;;;;;;;6.43;4.20;;;;;;;;;;4934562;28;20280;-84
2023/01/01 12:51:06;;;;;;;6.03;4.18;;;;;;;;;;4969436;28;20055;-85
2023/01/01 12:53:40;;;;;;;3.40;3.00;;;;;;;;;;4969645;28;20119;-89
2023/01/01 12:56:10;;;;;;;3.80;3.03;;;;;;;;;;4953039;28;20050;-84
2023/01/01 12:58:45;;;;;;;6.75;4.03;;;;;;;;;;4953906;28;20490;-84
2023/01/01 13:01:26;;;;;;;5.70;3.75;;;;;;;;;;4970449;28;20422;-84
2023/01/01 13:04:29;;;;;;;5.40;3.25;;;;;;;;;;4970605;28;20047;-86
2023/01/01 13:07:03;;;;;;;4.80;4.25;;;;;;;;;;4953378;28;20050;-85
2023/01/01 13:09:37;;;;;;;6.50;3.20;;;;;;;;;;4952892;28;20046;-85
2023/01/01 13:12:06;;;;;;;5.43;3.67;;;;;;;;;;4953847;28;20051;-84
2023/01/01 13:14:41;;;;;;;3.60;2.88;;;;;;;;;;4971224;28;20054;-86
2023/01/01 13:17:26;;;;;;;3.50;2.85;;;;;;;;;;4970420;28;20043;-85
2023/01/01 13:20:13;;;;;;;4.05;3.42;;;;;;;;;;4955545;28;20054;-87
2023/01/01 13:22:44;;;;;;;3.05;2.75;;;;;;;;;;4972175;28;20046;-87
2023/01/01 13:25:12;;;;;;;4.07;2.67;;;;;;;;;;4989465;28;20054;-85
2023/01/01 13:27:56;;;;;;;13.98;5.03;;;;;;;;;;4989607;28;20038;-85
2023/01/01 13:30:37;;;;;;;3.50;3.20;;;;;;;;;;4971109;28;20057;-86
2023/01/01 13:33:27;;;;;;;4.82;2.83;;;;;;;;;;4970210;28;20058;-85
2023/01/01 13:36:09;;;;;;;2.72;2.40;;;;;;;;;;4969017;28;20046;-86
2023/01/01 13:38:46;;;;;;;3.58;2.45;;;;;;;;;;4967879;28;20059;-85
2023/01/01 13:41:20;;;;;;;3.38;3.10;;;;;;;;;;4967755;28;20054;-85
2023/01/01 13:43:49;;;;;;;3.67;2.50;;;;;;;;;;4969028;28;20050;-86
2023/01/01 13:46:18;;;;;;;3.55;2.22;;;;;;;;;;4970029;28;20046;-83
2023/01/01 13:48:57;;;;;;;3.58;2.90;;;;;;;;;;4960601;28;20052;-83
2023/01/01 13:51:47;;;;;;;3.70;2.88;;;;;;;;;;4968526;28;20043;-83
2023/01/01 13:54:51;;;;;;;4.13;3.13;;;;;;;;;;4952301;28;20051;-83
2023/01/01 13:57:39;;;;;;;5.32;4.20;;;;;;;;;;4966454;28;20081;-83
2023/01/01 14:00:17;;;;;;;4.75;3.58;;;;;;;;;;4951732;28;20245;-82
2023/01/01 14:02:45;;;;;;;5.20;3.40;;;;;;;;;;4968578;28;20055;-83
2023/01/01 14:05:18;;;;;;;4.13;3.75;;;;;;;;;;4974494;28;20075;-83
2023/01/01 14:07:48;;;;;;;4.72;3.80;;;;;;;;;;4938168;28;20039;-83
2023/01/01 14:10:23;;;;;;;5.47;3.70;;;;;;;;;;4988997;28;20058;-83
2023/01/01 14:12:52;;;;;;;5.53;3.38;;;;;;;;;;4955741;28;20058;-82
2023/01/01 14:15:24;;;;;;;2.55;2.35;;;;;;;;;;4971483;28;20284;-82
2023/01/01 14:17:55;;;;;;;4.05;3.17;;;;;;;;;;4971782;28;20069;-82
2023/01/01 14:20:26;;;;;;;4.38;3.63;;;;;;;;;;4954170;28;20065;-82
2023/01/01 14:22:54;;;;;;;3.63;2.80;;;;;;;;;;4970423;28;20287;-82
2023/01/01 14:25:26;;;;;;;14.57;5.70;;;;;;;;;;4988315;28;20061;-83
2023/01/01 14:27:57;;;;;;;4.30;3.90;;;;;;;;;;4970993;28;20042;-82
2023/01/01 14:30:29;;;;;;;5.53;3.33;;;;;;;;;;4934938;28;20046;-82
2023/01/01 14:33:00;;;;;;;11.23;3.28;;;;;;;;;;4931591;29;20270;-82
2023/01/01 14:35:28;;;;;;;;;;;;;;;;;;4954866;28;20046;-82
2023/01/01 14:37:59;;;;;;;5.97;3.70;;;;;;;;;;4989385;28;20392;-82
2023/01/01 14:40:28;;;;;;;5.32;3.13;;;;;;;;;;4971305;28;20050;-82
2023/01/01 14:43:01;;;;;;;5.38;3.70;;;;;;;;;;4940748;28;20085;-82
2023/01/01 14:45:33;;;;;;;5.85;3.83;;;;;;;;;;4972557;28;20055;-82
2023/01/01 14:48:06;;;;;;;3.83;2.63;;;;;;;;;;4955557;28;20054;-82
2023/01/01 14:50:35;;;;;;;4.80;3.25;;;;;;;;;;4972798;28;20061;-82
2023/01/01 14:53:03;;;;;;;3.75;2.88;;;;;;;;;;4971783;28;20057;-82
2023/01/01 14:55:41;;;;;;;3.25;2.95;;;;;;;;;;4972346;28;20050;-82
2023/01/01 14:58:17;;;;;;;3.45;2.55;;;;;;;;;;4937898;28;20176;-82
2023/01/01 15:00:45;;;;;;;2.60;2.38;;;;;;;;;;4955035;28;20046;-83
2023/01/01 15:03:17;;;;;;;5.32;2.40;;;;;;;;;;4955085;28;20524;-83
2023/01/01 15:06:10;;;;;;;2.80;2.60;;;;;;;;;;4986833;28;20050;-83
2023/01/01 15:08:39;;;;;;;4.30;2.87;;;;;;;;;;4989886;28;20058;-82
2023/01/01 15:11:07;;;;;;;2.35;2.13;;;;;;;;;;4958319;28;20057;-83
2023/01/01 15:13:35;;;;;;;3.03;2.83;;;;;;;;;;4958265;28;20057;-82